Time;durP1;ratioP1;P1;durP2;ratioP2;P2;SDS_P1;SDS_P2;PMS_P1;PMS_P2;Temp;Humidity;BMP_temperature;BMP_pressure;BME280_temperature;BME280_humidity;BME280_pressure;Samples;Min_cycle;Max_cycle;Signal;HPM_P1;HPM_P2
2022/09/12 00:02:16;;;;;;;;;;;;;;;11.50;54.48;100157.38;5066664;28;19964;-81
2022/09/12 00:04:43;;;;;;;;;;;;;;;11.51;54.27;100164.38;5050775;28;19925;-79
2022/09/12 00:07:10;;;;;;;;;;;;;;;11.54;54.32;100168.75;5068447;28;19924;-78
2022/09/12 00:09:38;;;;;;;;;;;;;;;11.50;54.31;100170.47;5068918;28;19936;-78
2022/09/12 00:12:04;;;;;;;;;;;;;;;11.49;54.66;100163.50;5067956;28;19931;-80
2022/09/12 00:14:34;;;;;;;;;;;;;;;11.48;54.44;100157.38;5060192;28;20020;-79
2022/09/12 00:17:01;;;;;;;;;;;;;;;11.51;54.38;100153.00;5039437;28;19971;-78
2022/09/12 00:19:28;;;;;;;;;;;;;;;11.54;54.58;100156.53;5056723;28;19975;-79
2022/09/12 00:21:55;;;;;;;;;;;;;;;11.60;54.44;100151.31;5057150;28;19964;-81
2022/09/12 00:24:22;;;;;;;;;;;;;;;11.61;54.42;100145.22;5057283;28;19924;-83
2022/09/12 00:26:49;;;;;;;;;;;;;;;11.60;54.45;100148.72;5056408;28;20392;-81
2022/09/12 00:29:17;;;;;;;;;;;;;;;11.61;54.73;100142.59;5038666;28;19925;-80
2022/09/12 00:31:44;;;;;;;;;;;;;;;11.60;54.63;100142.63;5039314;28;19929;-78
2022/09/12 00:34:11;;;;;;;;;;;;;;;11.56;54.70;100141.72;5056408;28;19925;-78
2022/09/12 00:36:38;;;;;;;;;;;;;;;11.54;54.56;100140.84;5056390;28;20458;-81
2022/09/12 00:39:06;;;;;;;;;;;;;;;11.48;54.90;100140.81;5056466;28;20426;-78
2022/09/12 00:41:37;;;;;;;;;;;;;;;11.46;54.99;100137.31;5056543;28;19968;-79
2022/09/12 00:44:31;;;;;;;;;;;;;;;11.40;55.22;100148.63;5056223;28;19925;-80
2022/09/12 00:46:59;;;;;;;;;;;;;;;11.37;55.18;100137.28;5033652;28;19925;-79
2022/09/12 00:49:26;;;;;;;;;;;;;;;11.34;55.35;100138.16;5058357;28;19925;-79
2022/09/12 00:51:59;;;;;;;;;;;;;;;11.37;55.44;100132.91;5058527;28;20384;-79
2022/09/12 00:54:29;;;;;;;;;;;;;;;11.42;55.10;100138.16;5056404;28;19979;-81
2022/09/12 00:56:59;;;;;;;;;;;;;;;11.43;55.30;100139.91;5056217;28;20015;-79
2022/09/12 00:59:28;;;;;;;;;;;;;;;11.44;55.26;100139.03;5037966;28;19931;-82
2022/09/12 01:01:55;;;;;;;;;;;;;;;11.43;55.43;100145.16;5055866;28;19924;-80
2022/09/12 01:04:24;;;;;;;;;;;;;;;11.42;55.29;100141.66;5054820;28;19931;-82
2022/09/12 01:06:52;;;;;;;;;;;;;;;11.45;55.22;100140.81;5055493;28;20015;-81
2022/09/12 01:09:21;;;;;;;;;;;;;;;11.41;55.69;100133.81;5054903;28;19928;-80
2022/09/12 01:11:49;;;;;;;;;;;;;;;11.41;55.65;100146.88;5036427;28;19930;-80
2022/09/12 01:14:16;;;;;;;;;;;;;;;11.35;55.66;100141.63;5055524;28;20381;-83
2022/09/12 01:16:44;;;;;;;;;;;;;;;11.26;56.06;100134.63;5055360;28;20373;-78
2022/09/12 01:19:11;;;;;;;;;;;;;;;11.17;56.55;100131.97;5055147;28;20289;-78
2022/09/12 01:21:47;;;;;;;;;;;;;;;11.08;56.50;100132.78;5055890;28;19983;-81
2022/09/12 01:24:14;;;;;;;;;;;;;;;11.06;56.56;100129.28;5057363;28;19924;-79
2022/09/12 01:27:05;;;;;;;;;;;;;;;11.12;56.55;100137.16;5056232;28;20278;-77
2022/09/12 01:29:41;;;;;;;;;;;;;;;11.15;56.52;100128.47;5055336;28;19924;-78
2022/09/12 01:32:08;;;;;;;;;;;;;;;11.10;57.05;100125.81;5038352;28;19924;-82
2022/09/12 01:34:35;;;;;;;;;;;;;;;10.97;57.54;100126.59;5038732;28;19978;-83
2022/09/12 01:37:05;;;;;;;;;;;;;;;10.94;57.24;100124.84;5055587;28;20029;-82
2022/09/12 01:39:38;;;;;;;;;;;;;;;10.88;57.58;100124.81;5037750;28;19924;-81
2022/09/12 01:42:09;;;;;;;;;;;;;;;10.79;57.77;100130.84;5055990;28;19970;-79
2022/09/12 01:44:36;;;;;;;;;;;;;;;10.78;58.44;100129.09;5064561;28;19928;-77
2022/09/12 01:47:10;;;;;;;;;;;;;;;10.68;58.45;100126.44;5068682;28;20024;-80
2022/09/12 01:49:45;;;;;;;;;;;;;;;10.59;59.40;100128.09;5055709;28;20304;-81
2022/09/12 01:52:24;;;;;;;;;;;;;;;10.51;59.39;100127.16;5055571;28;20351;-82
2022/09/12 01:54:58;;;;;;;;;;;;;;;10.47;59.57;100127.13;5055133;28;20019;-81
2022/09/12 01:57:28;;;;;;;;;;;;;;;10.42;60.13;100129.72;5037435;28;19928;-80
2022/09/12 01:59:59;;;;;;;;;;;;;;;10.41;60.11;100123.63;5055242;28;19928;-82
2022/09/12 02:02:25;;;;;;;;;;;;;;;10.51;59.44;100129.78;5056165;28;19925;-79
2022/09/12 02:05:08;;;;;;;;;;;;;;;10.52;59.42;100125.41;5054392;28;19994;-81
2022/09/12 02:07:38;;;;;;;;;;;;;;;10.51;59.47;100127.16;5056162;28;20026;-77
2022/09/12 02:10:05;;;;;;;;;;;;;;;10.48;58.97;100129.75;5057033;28;19936;-78
2022/09/12 02:12:36;;;;;;;;;;;;;;;10.51;59.14;100131.50;5055049;28;19940;-78
2022/09/12 02:15:06;;;;;;;;;;;;;;;10.50;59.51;100125.44;5054244;28;19931;-81
2022/09/12 02:17:37;;;;;;;;;;;;;;;10.48;59.53;100132.38;5053950;28;20347;-82
2022/09/12 02:20:18;;;;;;;;;;;;;;;10.53;59.95;100133.28;5054810;28;19960;-79
2022/09/12 02:23:07;;;;;;;;;;;;;;;10.56;60.08;100132.41;5054536;28;19928;-81
2022/09/12 02:25:36;;;;;;;;;;;;;;;10.59;60.03;100133.31;5056392;28;19925;-79
2022/09/12 02:28:08;;;;;;;;;;;;;;;10.56;59.88;100133.31;5056346;28;19924;-80
2022/09/12 02:30:41;;;;;;;;;;;;;;;10.42;60.22;100124.47;5055954;28;19928;-82
2022/09/12 02:33:34;;;;;;;;;;;;;;;10.39;60.46;100129.66;5054496;28;20389;-80
2022/09/12 02:36:01;;;;;;;;;;;;;;;10.44;60.58;100133.22;5051381;28;20019;-79
2022/09/12 02:38:41;;;;;;;;;;;;;;;10.41;60.50;100126.22;5054225;28;19925;-80
2022/09/12 02:41:09;;;;;;;;;;;;;;;10.32;61.20;100128.75;5054089;28;19924;-80
2022/09/12 02:43:37;;;;;;;;;;;;;;;10.27;61.51;100127.81;5054181;28;19932;-80
2022/09/12 02:46:06;;;;;;;;;;;;;;;10.28;61.34;100129.53;5054329;28;19986;-81
2022/09/12 02:48:36;;;;;;;;;;;;;;;10.30;61.34;100130.47;5053819;28;19925;-78
2022/09/12 02:51:03;;;;;;;;;;;;;;;10.33;60.77;100133.13;5060801;28;19925;-79
2022/09/12 02:53:30;;;;;;;;;;;;;;;10.34;60.54;100129.63;5064354;28;19925;-78
2022/09/12 02:55:57;;;;;;;;;;;;;;;10.30;60.72;100130.47;5066751;28;19924;-81
2022/09/12 02:58:29;;;;;;;;;;;;;;;10.26;61.46;100136.50;5059971;28;20031;-78
2022/09/12 03:00:56;;;;;;;;;;;;;;;10.15;61.93;100132.91;5019492;28;19924;-79
2022/09/12 03:03:42;;;;;;;;;;;;;;;10.07;62.02;100131.94;5035214;28;19978;-81
2022/09/12 03:06:12;;;;;;;;;;;;;;;10.03;62.13;100131.94;5054171;28;19925;-79
2022/09/12 03:08:49;;;;;;;;;;;;;;;9.97;63.10;100137.09;5054154;28;19963;-80
2022/09/12 03:11:22;;;;;;;;;;;;;;;9.94;63.42;100133.59;5053785;28;19924;-82
2022/09/12 03:13:58;;;;;;;;;;;;;;;9.91;63.12;100131.81;5053141;28;19950;-79
2022/09/12 03:16:25;;;;;;;;;;;;;;;9.91;63.84;100126.59;5053669;28;19925;-80
2022/09/12 03:19:00;;;;;;;;;;;;;;;9.90;64.13;100123.97;5053510;28;19925;-77
2022/09/12 03:21:27;;;;;;;;;;;;;;;9.91;63.51;100120.50;5052844;28;19967;-80
2022/09/12 03:24:00;;;;;;;;;;;;;;;9.86;63.86;100119.59;5054042;28;19925;-77
2022/09/12 03:26:39;;;;;;;;;;;;;;;9.79;64.44;100132.56;5054776;28;19946;-81
2022/09/12 03:29:07;;;;;;;;;;;;;;;9.73;65.30;100136.84;5054576;28;20372;-79
2022/09/12 03:31:34;;;;;;;;;;;;;;;9.65;65.04;100134.13;5053367;28;20031;-83
2022/09/12 03:34:00;;;;;;;;;;;;;;;9.57;65.59;100136.66;5053743;28;19925;-78
2022/09/12 03:36:28;;;;;;;;;;;;;;;9.54;66.29;100134.00;5061254;28;19931;-80
2022/09/12 03:38:55;;;;;;;;;;;;;;;9.49;65.52;100137.44;5068356;28;20023;-80
2022/09/12 03:41:22;;;;;;;;;;;;;;;9.46;66.42;100140.84;5054173;28;20026;-81
2022/09/12 03:43:49;;;;;;;;;;;;;;;9.45;66.63;100138.25;5053364;28;19924;-78
2022/09/12 03:46:16;;;;;;;;;;;;;;;9.40;66.50;100133.00;5052091;28;19994;-82
2022/09/12 03:48:43;;;;;;;;;;;;;;;9.39;67.07;100136.44;5053089;28;19925;-80
2022/09/12 03:51:10;;;;;;;;;;;;;;;9.39;67.18;100132.09;5052978;28;19956;-81
2022/09/12 03:53:37;;;;;;;;;;;;;;;9.38;67.59;100140.78;5053641;28;19928;-83
2022/09/12 03:56:08;;;;;;;;;;;;;;;9.36;67.93;100134.66;5053088;28;19967;-81
2022/09/12 03:58:35;;;;;;;;;;;;;;;9.32;68.20;100134.63;5035437;28;20312;-80
2022/09/12 04:01:11;;;;;;;;;;;;;;;9.32;68.10;100135.47;5053489;28;19924;-80
2022/09/12 04:03:42;;;;;;;;;;;;;;;9.29;68.72;100134.56;5052971;28;19929;-80
2022/09/12 04:06:10;;;;;;;;;;;;;;;9.28;68.76;100133.69;5053343;28;20028;-80
2022/09/12 04:08:37;;;;;;;;;;;;;;;9.29;69.05;100132.84;5052999;28;19925;-78
2022/09/12 04:11:06;;;;;;;;;;;;;;;9.23;69.48;100137.97;5036165;28;20369;-81
2022/09/12 04:13:33;;;;;;;;;;;;;;;9.22;69.43;100136.22;5034823;28;19978;-80
2022/09/12 04:16:00;;;;;;;;;;;;;;;9.25;69.38;100136.28;5035931;28;19931;-81
2022/09/12 04:18:27;;;;;;;;;;;;;;;9.27;69.09;100134.56;5053425;28;20391;-79
2022/09/12 04:20:54;;;;;;;;;;;;;;;9.27;69.44;100131.06;5056015;28;19925;-81
2022/09/12 04:23:21;;;;;;;;;;;;;;;9.29;69.88;100129.34;5056982;28;19948;-81
2022/09/12 04:25:58;;;;;;;;;;;;;;;9.30;69.61;100141.53;5060995;28;19925;-81
2022/09/12 04:28:25;;;;;;;;;;;;;;;9.28;70.29;100135.44;5066565;28;19925;-82
2022/09/12 04:30:52;;;;;;;;;;;;;;;9.27;70.40;100131.06;5064507;28;19935;-80
2022/09/12 04:33:19;;;;;;;;;;;;;;;9.26;70.53;100127.59;5030542;28;19947;-82
2022/09/12 04:35:46;;;;;;;;;;;;;;;9.32;69.73;100129.41;5062896;28;20443;-81
2022/09/12 04:38:13;;;;;;;;;;;;;;;9.38;70.00;100130.34;5063475;28;20388;-80
2022/09/12 04:40:40;;;;;;;;;;;;;;;9.39;70.46;100139.91;5061215;28;19992;-81
2022/09/12 04:43:08;;;;;;;;;;;;;;;9.39;70.33;100139.03;5053515;28;19927;-80
2022/09/12 04:45:40;;;;;;;;;;;;;;;9.42;69.90;100133.84;5054190;28;20282;-80
2022/09/12 04:48:06;;;;;;;;;;;;;;;9.41;70.29;100139.94;5019568;28;20022;-80
2022/09/12 04:50:34;;;;;;;;;;;;;;;9.40;70.19;100138.19;5046165;28;19929;-81
2022/09/12 04:53:01;;;;;;;;;;;;;;;9.41;71.14;100138.19;5040791;28;19925;-78
2022/09/12 04:55:28;;;;;;;;;;;;;;;9.47;70.95;100139.16;5036142;28;19979;-80
2022/09/12 04:57:54;;;;;;;;;;;;;;;9.52;70.73;100134.84;5036604;28;20027;-83
2022/09/12 05:00:21;;;;;;;;;;;;;;;9.61;70.87;100129.72;5035933;28;19924;-80
2022/09/12 05:02:48;;;;;;;;;;;;;;;9.70;70.45;100137.69;5035576;28;20043;-80
2022/09/12 05:05:16;;;;;;;;;;;;;;;9.68;70.82;100123.75;5035863;28;19975;-79
2022/09/12 05:07:43;;;;;;;;;;;;;;;9.62;70.97;100132.38;5042032;28;19935;-80
2022/09/12 05:10:10;;;;;;;;;;;;;;;9.55;71.29;100133.16;5047647;28;19924;-81
2022/09/12 05:12:38;;;;;;;;;;;;;;;9.49;72.17;100140.91;5045503;28;20294;-80
2022/09/12 05:15:05;;;;;;;;;;;;;;;9.47;71.77;100133.94;5044550;28;19929;-77
2022/09/12 05:17:32;;;;;;;;;;;;;;;9.45;72.38;100130.44;5045808;28;19924;-80
2022/09/12 05:19:59;;;;;;;;;;;;;;;9.37;72.71;100127.72;5029606;28;19924;-82
2022/09/12 05:22:26;;;;;;;;;;;;;;;9.31;73.13;100133.72;5030907;28;19960;-79
2022/09/12 05:24:53;;;;;;;;;;;;;;;9.29;72.73;100129.34;5045448;28;20383;-81
2022/09/12 05:27:20;;;;;;;;;;;;;;;9.37;72.57;100127.72;5044710;28;19924;-81
2022/09/12 05:29:47;;;;;;;;;;;;;;;9.46;72.91;100137.38;5058675;28;20015;-78
2022/09/12 05:32:14;;;;;;;;;;;;;;;9.51;72.95;100138.34;5048266;28;20374;-80
2022/09/12 05:34:41;;;;;;;;;;;;;;;9.58;72.58;100137.53;5053528;28;20376;-81
2022/09/12 05:37:08;;;;;;;;;;;;;;;9.65;72.71;100134.13;5034933;28;19924;-79
2022/09/12 05:39:35;;;;;;;;;;;;;;;9.69;73.17;100140.28;5055557;28;20377;-81
2022/09/12 05:42:02;;;;;;;;;;;;;;;9.70;72.65;100124.66;5043502;28;19932;-79
2022/09/12 05:44:32;;;;;;;;;;;;;;;9.75;73.15;100129.91;5044578;28;20289;-78
2022/09/12 05:46:58;;;;;;;;;;;;;;;9.81;72.70;100132.59;5045337;28;20031;-81
2022/09/12 05:49:26;;;;;;;;;;;;;;;9.93;73.06;100124.00;5044083;28;19979;-80
2022/09/12 05:51:53;;;;;;;;;;;;;;;10.05;72.78;100122.38;5044203;28;19925;-80
2022/09/12 05:54:20;;;;;;;;;;;;;;;10.12;72.69;100123.31;5046721;28;19966;-81
2022/09/12 05:56:47;;;;;;;;;;;;;;;10.21;72.04;100122.53;5043723;28;19924;-80
2022/09/12 05:59:16;;;;;;;;;;;;;;;10.20;72.39;100116.44;5044007;28;19925;-80
2022/09/12 06:01:43;;;;;;;;;;;;;;;10.17;72.57;100120.75;5047723;28;19924;-79
2022/09/12 06:04:11;;;;;;;;;;;;;;;10.23;72.73;100116.44;5054416;28;19925;-79
2022/09/12 06:06:40;;;;;;;;;;;;;;;10.25;72.90;100117.34;5036836;28;19963;-80
2022/09/12 06:09:08;;;;;;;;;;;;;;;10.25;73.46;100108.63;5053449;28;19925;-80
2022/09/12 06:11:36;;;;;;;;;;;;;;;10.30;73.46;100112.19;5036700;28;19986;-80
2022/09/12 06:14:03;;;;;;;;;;;;;;;10.44;72.65;100121.03;5054123;28;19950;-80
2022/09/12 06:16:31;;;;;;;;;;;;;;;10.35;72.99;100115.72;5036779;28;19978;-81
2022/09/12 06:19:05;;;;;;;;;;;;;;;10.24;73.37;100109.50;5054176;28;19978;-80
2022/09/12 06:21:38;;;;;;;;;;;;;;;10.19;73.55;100117.28;5054209;28;19925;-80
2022/09/12 06:24:06;;;;;;;;;;;;;;;10.19;73.98;100130.34;5052817;28;20385;-80
2022/09/12 06:26:33;;;;;;;;;;;;;;;10.22;73.52;100119.06;5054198;28;19983;-80
2022/09/12 06:29:01;;;;;;;;;;;;;;;10.25;73.35;100112.13;5053784;28;19929;-80
2022/09/12 06:31:33;;;;;;;;;;;;;;;10.31;73.37;100118.31;5053978;28;19924;-81
2022/09/12 06:34:01;;;;;;;;;;;;;;;10.33;73.44;100112.22;5053719;28;20335;-81
2022/09/12 06:36:29;;;;;;;;;;;;;;;10.40;73.00;100132.28;5054697;28;19924;-79
2022/09/12 06:38:59;;;;;;;;;;;;;;;10.37;73.20;100126.19;5056877;28;19964;-80
2022/09/12 06:41:27;;;;;;;;;;;;;;;10.39;73.53;100135.78;5038172;28;19931;-81
2022/09/12 06:43:58;;;;;;;;;;;;;;;10.37;73.25;100136.63;5055912;28;20005;-78
2022/09/12 06:46:25;;;;;;;;;;;;;;;10.41;73.06;100139.28;5054878;28;19924;-79
2022/09/12 06:48:58;;;;;;;;;;;;;;;10.44;73.40;100131.47;5058366;28;20388;-79
2022/09/12 06:51:27;;;;;;;;;;;;;;;10.50;73.10;100133.25;5054068;28;19928;-83
2022/09/12 06:53:56;;;;;;;;;;;;;;;10.53;72.73;100135.88;5053378;28;19943;-78
2022/09/12 06:56:25;;;;;;;;;;;;;;;10.55;73.21;100134.16;5054776;28;20369;-79
2022/09/12 06:58:54;;;;;;;;;;;;;;;10.60;73.27;100139.41;5055095;28;19947;-80
2022/09/12 07:01:22;;;;;;;;;;;;;;;10.59;73.25;100142.91;5036166;28;19925;-80
2022/09/12 07:03:51;;;;;;;;;;;;;;;10.51;73.19;100136.75;5053915;28;19924;-80
2022/09/12 07:06:19;;;;;;;;;;;;;;;10.52;73.54;100146.31;5054084;28;19924;-81
2022/09/12 07:08:47;;;;;;;;;;;;;;;10.62;72.99;100135.94;5053580;28;19931;-80
2022/09/12 07:11:18;;;;;;;;;;;;;;;10.77;72.92;100152.59;5054464;28;20112;-79
2022/09/12 07:13:47;;;;;;;;;;;;;;;10.92;72.79;100144.88;5054762;28;20027;-79
2022/09/12 07:16:14;;;;;;;;;;;;;;;11.04;72.15;100142.34;5052899;28;19935;-79
2022/09/12 07:18:56;;;;;;;;;;;;;;;11.20;71.94;100131.97;5054395;28;19970;-80
2022/09/12 07:21:24;;;;;;;;;;;;;;;11.32;71.64;100144.25;5063034;28;20035;-78
2022/09/12 07:23:50;;;;;;;;;;;;;;;11.41;71.57;100146.88;5059401;28;19951;-81
2022/09/12 07:26:18;;;;;;;;;;;;;;;11.53;70.85;100151.28;5036502;28;20423;-80
2022/09/12 07:28:49;;;;;;;;;;;;;;;11.53;70.94;100148.66;5053952;28;19935;-80
2022/09/12 07:31:17;;;;;;;;;;;;;;;11.44;71.06;100145.16;5054246;28;20019;-78
2022/09/12 07:33:44;;;;;;;;;;;;;;;11.48;70.97;100140.81;5054584;28;19929;-81
2022/09/12 07:36:13;;;;;;;;;;;;;;;11.51;71.15;100142.56;5057975;28;20408;-81
2022/09/12 07:38:43;;;;;;;;;;;;;;;11.54;70.24;100153.91;5056544;28;20487;-78
2022/09/12 07:41:13;;;;;;;;;;;;;;;11.67;70.45;100144.38;5045096;28;19925;-79
2022/09/12 07:43:40;;;;;;;;;;;;;;;11.74;70.23;100150.50;5060493;28;20331;-78
2022/09/12 07:46:08;;;;;;;;;;;;;;;11.62;69.75;100146.09;5060425;28;20308;-78
2022/09/12 07:48:35;;;;;;;;;;;;;;;11.41;70.16;100146.88;5056017;28;19928;-81
2022/09/12 07:51:04;;;;;;;;;;;;;;;11.20;70.55;100153.75;5052499;28;19932;-81
2022/09/12 07:53:33;;;;;;;;;;;;;;;11.03;71.14;100140.59;5045258;28;19929;-82
2022/09/12 07:56:01;;;;;;;;;;;;;;;11.03;71.17;100140.59;5052875;28;20514;-82
2022/09/12 07:58:29;;;;;;;;;;;;;;;10.96;70.89;100138.78;5053100;28;19925;-80
2022/09/12 08:01:07;;;;;;;;;;;;;;;10.92;71.33;100152.72;5068906;28;19946;-82
2022/09/12 08:03:35;;;;;;;;;;;;;;;10.88;70.78;100142.22;5076158;28;20023;-82
2022/09/12 08:06:10;;;;;;;;;;;;;;;10.81;70.88;100157.88;5076691;28;19967;-82
2022/09/12 08:08:37;;;;;;;;;;;;;;;10.84;70.66;100155.28;5077466;28;19970;-81
2022/09/12 08:11:05;;;;;;;;;;;;;;;10.94;70.79;100143.13;5076619;28;19954;-81
2022/09/12 08:13:33;;;;;;;;;;;;;;;11.15;70.12;100158.09;5058148;28;20031;-83
2022/09/12 08:16:12;;;;;;;;;;;;;;;11.07;69.91;100152.81;5052780;28;19975;-82
2022/09/12 08:18:39;;;;;;;;;;;;;;;11.03;69.87;100150.16;5055557;28;19925;-83
2022/09/12 08:21:09;;;;;;;;;;;;;;;11.05;69.76;100140.59;5054084;28;19925;-82
2022/09/12 08:23:36;;;;;;;;;;;;;;;11.00;69.10;100151.03;5055800;28;19924;-81
2022/09/12 08:26:03;;;;;;;;;;;;;;;10.98;69.45;100151.88;5056362;28;19925;-83
2022/09/12 08:28:33;;;;;;;;;;;;;;;10.99;69.59;100148.41;5056415;28;19925;-80
2022/09/12 08:31:07;;;;;;;;;;;;;;;10.99;69.13;100144.06;5056404;28;19924;-82
2022/09/12 08:33:34;;;;;;;;;;;;;;;10.94;69.34;100142.28;5057263;28;19978;-81
2022/09/12 08:36:02;;;;;;;;;;;;;;;10.97;69.13;100137.94;5056786;28;19932;-81
2022/09/12 08:38:29;;;;;;;;;;;;;;;11.03;68.99;100134.47;5057113;28;19924;-80
2022/09/12 08:41:19;;;;;;;;;;;;;;;11.03;68.88;100148.44;5056463;28;20411;-81
2022/09/12 08:43:47;;;;;;;;;;;;;;;11.05;69.05;100146.69;5045611;28;19938;-79
2022/09/12 08:46:26;;;;;;;;;;;;;;;11.20;68.42;100147.66;5058855;28;20019;-79
2022/09/12 08:48:54;;;;;;;;;;;;;;;11.16;68.02;100140.66;5057578;28;19925;-84
2022/09/12 08:51:21;;;;;;;;;;;;;;;11.12;68.29;100141.50;5056228;28;19932;-81
2022/09/12 08:53:55;;;;;;;;;;;;;;;11.05;68.15;100130.13;5056036;28;19925;-80
2022/09/12 08:56:23;;;;;;;;;;;;;;;11.15;68.24;100131.94;5038889;28;19990;-82
2022/09/12 08:58:57;;;;;;;;;;;;;;;11.22;68.13;100132.84;5056692;28;19925;-82
2022/09/12 09:01:31;;;;;;;;;;;;;;;11.22;67.87;100133.72;5056113;28;19978;-82
2022/09/12 09:03:58;;;;;;;;;;;;;;;11.24;67.74;100123.28;5055613;28;20384;-80
2022/09/12 09:06:41;;;;;;;;;;;;;;;11.40;67.64;100126.81;5056403;28;20399;-82
2022/09/12 09:09:19;;;;;;;;;;;;;;;11.46;67.28;100132.06;5055687;28;20343;-80
2022/09/12 09:12:03;;;;;;;;;;;;;;;11.48;67.00;100136.44;5056721;28;19929;-80
2022/09/12 09:14:49;;;;;;;;;;;;;;;11.50;66.87;100132.97;5072263;28;19956;-79
2022/09/12 09:17:17;;;;;;;;;;;;;;;11.58;66.80;100126.03;5040735;28;19950;-77
2022/09/12 09:19:48;;;;;;;;;;;;;;;11.76;66.39;100127.81;5038666;28;19947;-80
2022/09/12 09:22:32;;;;;;;;;;;;;;;11.86;65.34;100146.16;5038901;28;19936;-84
2022/09/12 09:25:03;;;;;;;;;;;;;;;11.84;65.54;100132.22;5044356;28;20022;-79
2022/09/12 09:27:32;;;;;;;;;;;;;;;11.97;65.63;100127.91;5032127;28;19924;-81
2022/09/12 09:30:12;;;;;;;;;;;;;;;12.12;64.93;100140.16;5051418;28;20052;-83
2022/09/12 09:32:58;;;;;;;;;;;;;;;12.15;64.68;100137.53;5051598;28;19925;-82
2022/09/12 09:35:58;;;;;;;;;;;;;;;12.15;64.52;100141.91;5050086;28;19924;-81
2022/09/12 09:38:49;;;;;;;;;;;;;;;12.43;64.44;100142.78;5022901;28;19925;-80
2022/09/12 09:41:24;;;;;;;;;;;;;;;12.96;62.88;100141.00;5039568;28;19925;-79
2022/09/12 09:43:59;;;;;;;;;;;;;;;13.14;62.49;100137.47;5057602;28;19931;-81
2022/09/12 09:46:38;;;;;;;;;;;;;;;13.39;62.16;100140.94;5060814;28;20027;-81
2022/09/12 09:49:21;;;;;;;;;;;;;;;13.30;61.29;100142.69;5058278;28;19924;-80
2022/09/12 09:51:50;;;;;;;;;;;;;;;13.21;61.14;100147.94;5040168;28;19979;-82
2022/09/12 09:54:28;;;;;;;;;;;;;;;13.18;61.26;100157.56;5057295;28;19924;-85
2022/09/12 09:57:04;;;;;;;;;;;;;;;13.12;61.13;100137.50;5071827;28;20003;-82
2022/09/12 09:59:34;;;;;;;;;;;;;;;13.21;60.71;100145.31;5056815;28;20384;-81
2022/09/12 10:02:22;;;;;;;;;;;;;;;13.21;60.96;100136.59;5060230;28;19950;-79
2022/09/12 10:04:58;;;;;;;;;;;;;;;13.17;60.45;100140.09;5039724;28;19932;-80
2022/09/12 10:07:28;;;;;;;;;;;;;;;13.17;59.82;100145.34;5039834;28;19925;-80
2022/09/12 10:10:22;;;;;;;;;;;;;;;13.20;60.03;100126.97;5055493;28;19928;-81
2022/09/12 10:13:08;;;;;;;;;;;;;;;13.20;59.63;100138.31;5020774;28;20269;-80
2022/09/12 10:15:57;;;;;;;;;;;;;;;13.22;59.70;100138.31;5016913;28;19936;-80
2022/09/12 10:18:51;;;;;;;;;;;;;;;13.13;59.64;100126.09;5019411;28;19932;-79
2022/09/12 10:21:38;;;;;;;;;;;;;;;13.14;59.36;100138.31;5017132;28;20325;-78
2022/09/12 10:24:34;;;;;;;;;;;;;;;13.05;59.28;100130.50;5028032;28;19930;-80
2022/09/12 10:27:07;;;;;;;;;;;;;;;13.10;59.63;100136.63;4998063;28;19997;-79
2022/09/12 10:29:43;;;;;;;;;;;;;;;13.40;59.22;100135.69;5017236;28;19926;-78
2022/09/12 10:32:18;;;;;;;;;;;;;;;13.33;58.29;100139.19;5018450;28;19926;-79
2022/09/12 10:35:01;;;;;;;;;;;;;;;13.17;58.99;100133.09;5011972;28;20406;-81
2022/09/12 10:37:34;;;;;;;;;;;;;;;13.34;58.85;100134.84;4998230;28;19929;-79
2022/09/12 10:40:05;;;;;;;;;;;;;;;13.35;57.80;100131.31;4995282;28;20371;-81
2022/09/12 10:42:53;;;;;;;;;;;;;;;13.17;57.57;100127.84;4997360;28;19932;-82
2022/09/12 10:45:23;;;;;;;;;;;;;;;13.03;57.39;100140.97;4995722;28;19953;-80
2022/09/12 10:47:50;;;;;;;;;;;;;;;12.94;58.11;100127.91;4994967;28;19932;-81
2022/09/12 10:50:19;;;;;;;;;;;;;;;12.93;58.13;100135.75;4994779;28;19925;-79
2022/09/12 10:52:51;;;;;;;;;;;;;;;12.91;57.99;100136.66;5006576;28;19925;-80
2022/09/12 10:55:33;;;;;;;;;;;;;;;12.90;58.28;100134.88;4987350;28;20027;-78
2022/09/12 10:58:09;;;;;;;;;;;;;;;12.87;58.19;100129.66;5006690;28;19932;-79
2022/09/12 11:00:39;;;;;;;;;;;;;;;12.88;58.18;100122.66;5014858;28;19935;-79
2022/09/12 11:03:22;;;;;;;;;;;;;;;12.95;58.06;100134.91;5014482;28;19925;-79
2022/09/12 11:05:52;;;;;;;;;;;;;;;12.96;58.18;100127.91;5015492;28;19935;-80
2022/09/12 11:08:26;;;;;;;;;;;;;;;13.05;58.07;100125.25;5047408;28;19933;-79
2022/09/12 11:11:12;;;;;;;;;;;;;;;13.07;57.52;100131.38;5028834;28;19932;-81
2022/09/12 11:13:49;;;;;;;;;;;;;;;13.03;57.63;100114.75;5018660;28;19929;-81
2022/09/12 11:16:22;;;;;;;;;;;;;;;13.01;57.33;100120.88;5036720;28;19929;-80
2022/09/12 11:19:02;;;;;;;;;;;;;;;13.08;57.59;100118.25;5054186;28;19924;-79
2022/09/12 11:21:33;;;;;;;;;;;;;;;13.17;57.14;100111.25;5037064;28;19925;-80
2022/09/12 11:24:30;;;;;;;;;;;;;;;13.15;56.83;100111.25;5037754;28;19986;-79
2022/09/12 11:27:12;;;;;;;;;;;;;;;13.02;57.12;100115.66;5031710;28;19932;-78
2022/09/12 11:29:45;;;;;;;;;;;;;;;12.95;57.57;100113.03;5055874;28;19936;-79
2022/09/12 11:32:24;;;;;;;;;;;;;;;13.08;57.55;100115.63;5038586;28;20365;-79
2022/09/12 11:34:54;;;;;;;;;;;;;;;13.10;56.99;100116.50;5054945;28;19924;-78
2022/09/12 11:37:44;;;;;;;;;;;;;;;13.20;56.72;100121.72;5038975;28;19924;-80
2022/09/12 11:40:21;;;;;;;;;;;;;;;13.31;56.41;100107.72;5038021;28;19924;-79
2022/09/12 11:42:55;;;;;;;;;;;;;;;13.35;56.30;100108.56;5053720;28;19971;-78
2022/09/12 11:45:32;;;;;;;;;;;;;;;13.40;56.42;100105.91;5019452;28;19932;-80
2022/09/12 11:48:03;;;;;;;;;;;;;;;13.56;56.38;100101.50;5053593;28;19966;-79
2022/09/12 11:50:31;;;;;;;;;;;;;;;13.66;55.90;100095.31;5034361;28;20281;-78
2022/09/12 11:53:24;;;;;;;;;;;;;;;13.67;56.19;100104.94;5053235;28;19924;-79
2022/09/12 11:56:02;;;;;;;;;;;;;;;13.59;55.92;100090.97;5052422;28;19925;-78
2022/09/12 11:58:29;;;;;;;;;;;;;;;13.61;56.23;100084.81;5039517;28;19924;-79
2022/09/12 12:01:11;;;;;;;;;;;;;;;13.72;55.96;100085.66;5057325;28;20339;-79
2022/09/12 12:03:42;;;;;;;;;;;;;;;13.82;55.21;100081.19;5057539;28;19925;-78
2022/09/12 12:06:09;;;;;;;;;;;;;;;13.75;55.53;100086.53;5057116;28;19924;-79
2022/09/12 12:08:37;;;;;;;;;;;;;;;13.82;55.43;100081.19;5056944;28;19968;-78
2022/09/12 12:11:06;;;;;;;;;;;;;;;13.79;54.73;100075.09;5056371;28;19947;-79
2022/09/12 12:13:33;;;;;;;;;;;;;;;13.80;55.05;100075.09;5057166;28;19925;-76
2022/09/12 12:16:06;;;;;;;;;;;;;;;13.84;54.90;100065.44;5057363;28;19932;-82
2022/09/12 12:18:43;;;;;;;;;;;;;;;13.91;54.57;100069.75;5040661;28;20343;-81
2022/09/12 12:21:30;;;;;;;;;;;;;;;13.92;54.71;100069.75;5056728;28;19925;-79
2022/09/12 12:24:03;;;;;;;;;;;;;;;13.82;54.84;100077.72;5056955;28;20411;-80
2022/09/12 12:26:41;;;;;;;;;;;;;;;13.89;54.58;100071.53;5058412;28;19925;-81
2022/09/12 12:29:10;;;;;;;;;;;;;;;13.82;54.14;100067.22;5040319;28;19947;-78
2022/09/12 12:31:56;;;;;;;;;;;;;;;13.91;54.55;100059.25;5057981;28;19986;-79
2022/09/12 12:34:34;;;;;;;;;;;;;;;14.07;53.88;100062.66;5064594;28;19928;-79
2022/09/12 12:37:19;;;;;;;;;;;;;;;13.98;53.65;100054.84;5062793;28;19924;-79
2022/09/12 12:39:47;;;;;;;;;;;;;;;13.97;54.02;100059.22;5060474;28;20031;-79
2022/09/12 12:42:33;;;;;;;;;;;;;;;14.07;53.98;100052.16;5058708;28;19971;-77
2022/09/12 12:45:04;;;;;;;;;;;;;;;14.14;53.55;100051.22;5060316;28;19970;-81
2022/09/12 12:47:31;;;;;;;;;;;;;;;14.16;53.34;100048.59;5073065;28;19928;-79
2022/09/12 12:50:03;;;;;;;;;;;;;;;14.24;53.17;100054.63;5043222;28;19952;-79
2022/09/12 12:52:45;;;;;;;;;;;;;;;14.21;53.33;100047.66;5054045;28;20411;-81
2022/09/12 12:55:20;;;;;;;;;;;;;;;14.29;53.54;100052.84;5039630;28;19924;-77
2022/09/12 12:57:50;;;;;;;;;;;;;;;14.20;53.33;100058.19;5069975;28;19928;-79
2022/09/12 13:00:20;;;;;;;;;;;;;;;14.16;53.38;100053.84;5063826;28;20002;-82
2022/09/12 13:02:55;;;;;;;;;;;;;;;14.09;53.36;100056.50;5038593;28;19929;-79